createdAt,value
2023-01-26T00:00:10.039Z,16.90
2023-01-26T00:02:39.337Z,17.53
2023-01-26T00:05:08.390Z,18.43
2023-01-26T00:07:37.020Z,17.40
2023-01-26T00:10:05.964Z,17.67
2023-01-26T00:12:34.553Z,18.13
2023-01-26T00:15:03.231Z,18.93
2023-01-26T00:17:31.824Z,18.80
2023-01-26T00:20:00.744Z,18.60
2023-01-26T00:22:29.469Z,17.97
2023-01-26T00:24:58.234Z,18.10
2023-01-26T00:27:26.857Z,18.60
2023-01-26T00:29:55.681Z,16.20
2023-01-26T00:36:31.047Z,19.07
2023-01-26T00:38:59.750Z,20.00
2023-01-26T00:41:45.517Z,19.80
2023-01-26T00:44:14.186Z,19.90
2023-01-26T00:46:42.920Z,20.83
2023-01-26T00:49:11.837Z,20.07
2023-01-26T00:51:40.436Z,19.90
2023-01-26T00:54:09.067Z,20.23
2023-01-26T00:56:38.177Z,20.63
2023-01-26T00:59:07.868Z,20.03
2023-01-26T01:01:36.880Z,21.07
2023-01-26T01:04:05.550Z,20.83
2023-01-26T01:06:34.180Z,19.87
2023-01-26T01:09:03.064Z,20.33
2023-01-26T01:11:31.699Z,20.60
2023-01-26T01:14:00.396Z,19.37
2023-01-26T01:16:29.388Z,19.50
2023-01-26T01:18:58.530Z,18.97
2023-01-26T01:21:27.412Z,17.77
2023-01-26T01:23:56.014Z,17.27
2023-01-26T01:30:31.115Z,17.47
2023-01-26T01:32:59.907Z,17.70
2023-01-26T01:35:29.519Z,17.97
2023-01-26T01:37:58.251Z,16.90
2023-01-26T01:40:26.812Z,18.07
2023-01-26T01:42:55.393Z,18.33
2023-01-26T01:45:48.905Z,18.90
2023-01-26T01:48:38.222Z,18.23
2023-01-26T01:51:31.055Z,18.50
2023-01-26T01:54:04.619Z,19.30
2023-01-26T01:56:33.743Z,17.97
2023-01-26T01:59:03.460Z,20.03
2023-01-26T02:01:32.286Z,18.90
2023-01-26T02:04:05.590Z,18.07
2023-01-26T02:06:58.524Z,19.33
2023-01-26T02:09:54.096Z,18.27
2023-01-26T02:12:28.190Z,19.90
2023-01-26T02:14:58.559Z,21.23
2023-01-26T02:17:26.883Z,21.00
2023-01-26T02:20:45.160Z,19.87
2023-01-26T02:23:50.540Z,20.30
2023-01-26T02:26:25.540Z,19.83
2023-01-26T02:28:54.388Z,19.23
2023-01-26T02:31:25.145Z,20.30
2023-01-26T02:33:53.815Z,19.43
2023-01-26T02:36:31.892Z,20.80
2023-01-26T02:39:00.637Z,19.67
2023-01-26T02:41:47.066Z,20.70
2023-01-26T02:44:16.451Z,18.43
2023-01-26T02:46:45.109Z,16.67
2023-01-26T02:49:30.942Z,17.40
2023-01-26T02:51:59.675Z,16.20
2023-01-26T02:54:45.719Z,15.33
2023-01-26T02:57:14.419Z,16.20
2023-01-26T02:59:43.081Z,15.63
2023-01-26T03:02:11.962Z,16.80
2023-01-26T03:04:40.430Z,15.67
2023-01-26T03:07:09.258Z,16.87
2023-01-26T03:09:38.069Z,14.90
2023-01-26T03:12:06.804Z,12.83
2023-01-26T03:14:35.423Z,13.43
2023-01-26T03:17:03.986Z,12.47
2023-01-26T03:19:49.840Z,12.93
2023-01-26T03:22:35.803Z,12.13
2023-01-26T03:25:21.582Z,12.10
2023-01-26T03:27:51.191Z,11.93
2023-01-26T03:30:21.028Z,13.27
2023-01-26T03:32:49.620Z,11.93
2023-01-26T03:35:22.730Z,11.03
2023-01-26T03:37:54.743Z,12.23
2023-01-26T03:40:37.464Z,11.17
2023-01-26T03:43:27.621Z,11.70
2023-01-26T03:46:13.772Z,11.50
2023-01-26T03:48:59.620Z,11.63
2023-01-26T03:51:45.391Z,11.53
2023-01-26T03:54:31.256Z,11.20
2023-01-26T03:56:59.690Z,11.10
2023-01-26T03:59:39.080Z,11.07
2023-01-26T04:02:30.807Z,11.37
2023-01-26T04:05:17.071Z,12.07
2023-01-26T04:08:02.733Z,11.13
2023-01-26T04:10:31.225Z,11.87
2023-01-26T04:13:16.859Z,10.80
2023-01-26T04:16:02.546Z,10.77
2023-01-26T04:18:48.389Z,12.37
2023-01-26T04:21:29.311Z,12.07
2023-01-26T04:23:59.041Z,11.90
2023-01-26T04:26:34.870Z,11.13
2023-01-26T04:29:09.888Z,11.63
2023-01-26T04:31:39.305Z,11.10
2023-01-26T04:34:12.374Z,10.50
2023-01-26T04:36:41.463Z,10.90
2023-01-26T04:39:10.347Z,11.73
2023-01-26T04:41:41.303Z,11.57
2023-01-26T04:44:10.688Z,10.80
2023-01-26T04:46:39.178Z,10.40
2023-01-26T04:49:07.688Z,10.77
2023-01-26T04:51:36.325Z,10.97
2023-01-26T04:54:04.935Z,10.60
2023-01-26T04:56:36.447Z,11.67
2023-01-26T04:59:08.659Z,12.00
2023-01-26T05:01:37.202Z,10.73
2023-01-26T05:04:07.130Z,10.77
2023-01-26T05:06:35.817Z,10.90
2023-01-26T05:09:04.408Z,10.17
2023-01-26T05:11:32.912Z,11.43
2023-01-26T05:14:01.453Z,11.30
2023-01-26T05:16:30.210Z,11.40
2023-01-26T05:18:58.634Z,10.70
2023-01-26T05:21:28.220Z,11.37
2023-01-26T05:23:57.122Z,11.57
2023-01-26T05:26:25.569Z,11.33
2023-01-26T05:28:54.034Z,12.53
2023-01-26T05:31:22.520Z,10.13
2023-01-26T05:33:50.946Z,11.60
2023-01-26T05:36:19.497Z,11.70
2023-01-26T05:38:48.368Z,10.77
2023-01-26T05:41:16.846Z,11.17
2023-01-26T05:43:45.294Z,11.63
2023-01-26T05:46:13.719Z,12.07
2023-01-26T05:48:42.190Z,12.37
2023-01-26T05:51:10.644Z,11.60
2023-01-26T05:53:39.152Z,11.33
2023-01-26T05:56:07.805Z,10.93
2023-01-26T05:58:36.307Z,11.73
2023-01-26T06:01:08.692Z,10.70
2023-01-26T06:03:37.149Z,11.43
2023-01-26T06:06:05.885Z,10.53
2023-01-26T06:08:34.317Z,11.17
2023-01-26T06:11:02.969Z,10.13
2023-01-26T06:13:31.879Z,11.10
2023-01-26T06:16:02.751Z,11.17
2023-01-26T06:18:31.265Z,11.30
2023-01-26T06:21:02.605Z,12.07
2023-01-26T06:23:31.332Z,11.10
2023-01-26T06:26:03.092Z,12.10
2023-01-26T06:28:32.172Z,11.13
2023-01-26T06:31:08.366Z,11.07
2023-01-26T06:33:38.415Z,11.20
2023-01-26T06:36:13.665Z,11.27
2023-01-26T06:38:56.379Z,10.53
2023-01-26T06:41:25.227Z,11.53
2023-01-26T06:43:53.896Z,11.60
2023-01-26T06:46:22.903Z,11.47
2023-01-26T06:48:51.493Z,10.67
2023-01-26T06:51:20.169Z,11.40
2023-01-26T06:53:59.056Z,10.30
2023-01-26T06:56:28.680Z,10.50
2023-01-26T06:58:57.231Z,10.20
2023-01-26T07:01:27.807Z,10.93
2023-01-26T07:03:56.614Z,9.90
2023-01-26T07:06:25.106Z,9.90
2023-01-26T07:08:53.510Z,11.27
2023-01-26T07:11:22.676Z,10.33
2023-01-26T07:13:51.148Z,9.83
2023-01-26T07:16:20.119Z,9.60
2023-01-26T07:18:48.580Z,10.10
2023-01-26T07:21:19.778Z,9.83
2023-01-26T07:23:48.543Z,10.53
2023-01-26T07:26:17.171Z,9.73
2023-01-26T07:28:45.623Z,9.93
2023-01-26T07:31:14.777Z,10.00
2023-01-26T07:33:43.430Z,10.40
2023-01-26T07:36:12.103Z,9.27
2023-01-26T07:38:40.808Z,9.47
2023-01-26T07:41:13.049Z,9.37
2023-01-26T07:43:42.588Z,9.47
2023-01-26T07:46:12.312Z,9.13
2023-01-26T07:48:41.763Z,9.00
2023-01-26T07:51:11.278Z,8.50
2023-01-26T07:53:42.600Z,9.33
2023-01-26T07:56:16.681Z,9.53
2023-01-26T07:58:45.255Z,9.23
2023-01-26T08:01:15.870Z,9.13
2023-01-26T08:03:45.597Z,8.43
2023-01-26T08:06:15.381Z,9.03
2023-01-26T08:08:44.645Z,8.90
2023-01-26T08:11:13.696Z,9.50
2023-01-26T08:13:42.171Z,9.07
2023-01-26T08:16:13.248Z,9.30
2023-01-26T08:18:47.056Z,10.37
2023-01-26T08:21:17.901Z,10.27
2023-01-26T08:23:52.943Z,10.17
2023-01-26T08:26:21.895Z,10.47
2023-01-26T08:28:50.702Z,9.47
2023-01-26T08:31:22.033Z,10.67
2023-01-26T08:33:52.284Z,10.87
2023-01-26T08:36:22.791Z,10.27
2023-01-26T08:38:51.921Z,11.00
2023-01-26T08:41:20.819Z,10.50
2023-01-26T08:43:49.339Z,10.50
2023-01-26T08:46:17.860Z,10.67
2023-01-26T08:48:46.427Z,11.10
2023-01-26T08:51:14.833Z,9.43
2023-01-26T08:53:43.334Z,10.60
2023-01-26T08:56:14.347Z,10.83
2023-01-26T08:58:42.782Z,11.43
2023-01-26T09:01:15.011Z,10.47
2023-01-26T09:03:44.738Z,11.17
2023-01-26T09:06:14.856Z,11.30
2023-01-26T09:08:43.598Z,9.47
2023-01-26T09:11:12.257Z,10.40
2023-01-26T09:13:41.007Z,12.27
2023-01-26T09:16:16.646Z,10.87
2023-01-26T09:18:45.238Z,10.43
2023-01-26T09:21:13.769Z,10.17
2023-01-26T09:23:42.226Z,10.57
2023-01-26T09:26:10.815Z,11.13
2023-01-26T09:28:39.547Z,10.77
2023-01-26T09:31:11.371Z,10.90
2023-01-26T09:33:39.911Z,11.03
2023-01-26T09:36:12.082Z,10.20
2023-01-26T09:38:41.261Z,10.87
2023-01-26T09:41:18.420Z,10.20
2023-01-26T09:44:01.293Z,9.57
2023-01-26T09:47:15.690Z,9.40
2023-01-26T09:49:44.321Z,8.23
2023-01-26T09:52:22.161Z,9.10
2023-01-26T09:54:56.995Z,9.30
2023-01-26T09:57:37.900Z,9.10
2023-01-26T10:00:23.475Z,10.53
2023-01-26T10:03:47.344Z,10.17
2023-01-26T10:06:32.692Z,8.83
2023-01-26T10:09:09.836Z,9.50
2023-01-26T10:11:46.913Z,8.87
2023-01-26T10:14:40.748Z,9.17
2023-01-26T10:17:34.591Z,8.37
2023-01-26T10:20:06.415Z,9.07
2023-01-26T10:22:47.560Z,9.10
2023-01-26T10:25:27.136Z,8.97
2023-01-26T10:27:56.399Z,7.83
2023-01-26T10:30:25.193Z,9.33
2023-01-26T10:32:54.812Z,8.50
2023-01-26T10:35:26.177Z,9.20
2023-01-26T10:37:56.302Z,9.60
2023-01-26T10:40:25.055Z,8.90
2023-01-26T10:43:00.014Z,7.70
2023-01-26T10:45:32.712Z,8.30
2023-01-26T10:48:26.848Z,8.10
2023-01-26T10:50:56.149Z,9.17
2023-01-26T10:53:25.685Z,8.60
2023-01-26T10:56:07.760Z,9.37
2023-01-26T10:58:58.910Z,8.10
2023-01-26T11:01:28.463Z,8.83
2023-01-26T11:04:08.039Z,7.90
2023-01-26T11:06:36.944Z,8.27
2023-01-26T11:09:24.375Z,8.90
2023-01-26T11:12:06.052Z,9.10
2023-01-26T11:14:35.292Z,8.23
2023-01-26T11:17:09.961Z,9.43
2023-01-26T11:19:57.005Z,8.37
2023-01-26T11:23:04.993Z,9.50
2023-01-26T11:26:06.667Z,9.53
2023-01-26T11:28:49.640Z,10.87
2023-01-26T11:31:34.006Z,10.17
2023-01-26T11:34:02.624Z,10.10
2023-01-26T11:36:36.553Z,10.67
2023-01-26T11:39:15.796Z,10.57
2023-01-26T11:42:25.946Z,10.67
2023-01-26T11:45:31.396Z,10.40
2023-01-26T11:48:49.755Z,12.93
2023-01-26T11:51:54.071Z,11.13
2023-01-26T11:55:08.599Z,16.57
2023-01-26T11:58:09.032Z,20.20
2023-01-26T12:01:08.058Z,13.80
2023-01-26T12:03:51.170Z,13.77
2023-01-26T12:06:36.819Z,14.27
2023-01-26T12:09:11.849Z,14.63
2023-01-26T12:11:53.787Z,14.07
2023-01-26T12:14:47.916Z,11.87
2023-01-26T12:18:20.490Z,13.87
2023-01-26T12:21:16.715Z,24.53
2023-01-26T12:24:05.105Z,23.17
2023-01-26T12:26:47.149Z,18.07
2023-01-26T12:29:33.759Z,18.03
2023-01-26T12:32:16.923Z,15.93
2023-01-26T12:34:45.617Z,16.20
2023-01-26T12:37:50.231Z,16.67
2023-01-26T12:40:44.988Z,15.97
2023-01-26T12:43:44.287Z,18.27
2023-01-26T12:46:14.476Z,17.40
2023-01-26T12:48:59.245Z,19.00
2023-01-26T12:51:38.851Z,18.03
2023-01-26T12:54:27.423Z,17.10
2023-01-26T12:57:01.130Z,18.17
2023-01-26T12:59:47.872Z,18.50
2023-01-26T13:02:17.899Z,20.47
2023-01-26T13:04:49.225Z,21.20
2023-01-26T13:07:30.655Z,20.60
2023-01-26T13:10:26.518Z,17.57
2023-01-26T13:13:03.566Z,18.60
2023-01-26T13:15:33.787Z,18.20
2023-01-26T13:18:04.901Z,18.53
2023-01-26T13:20:52.907Z,20.83
2023-01-26T13:23:45.247Z,19.90
2023-01-26T13:26:15.681Z,21.63
2023-01-26T13:28:45.035Z,22.27
2023-01-26T13:31:14.449Z,21.17
2023-01-26T13:33:43.797Z,20.63
2023-01-26T13:36:21.989Z,20.33
2023-01-26T13:39:05.489Z,20.53
2023-01-26T13:41:34.188Z,18.47
2023-01-26T13:44:25.668Z,20.33
2023-01-26T13:46:59.883Z,19.60
2023-01-26T13:49:43.997Z,19.53
2023-01-26T13:52:26.408Z,19.43
2023-01-26T13:54:58.046Z,20.23
2023-01-26T13:57:31.751Z,19.80
2023-01-26T14:00:01.912Z,20.20
2023-01-26T14:02:33.058Z,20.57
2023-01-26T14:05:04.803Z,19.70
2023-01-26T14:07:46.313Z,19.37
2023-01-26T14:10:21.840Z,17.97
2023-01-26T14:13:01.297Z,19.37
2023-01-26T14:15:35.116Z,18.13
2023-01-26T14:18:06.239Z,16.03
2023-01-26T14:20:39.757Z,16.57
2023-01-26T14:23:20.240Z,16.87
2023-01-26T14:26:20.834Z,17.07
2023-01-26T14:28:49.553Z,16.63
2023-01-26T14:31:22.878Z,15.87
2023-01-26T14:33:57.478Z,16.67
2023-01-26T14:36:34.047Z,15.57
2023-01-26T14:39:02.651Z,16.30
2023-01-26T14:41:33.835Z,15.53
2023-01-26T14:44:05.099Z,15.20
2023-01-26T14:46:51.382Z,15.67
2023-01-26T14:49:44.285Z,16.07
2023-01-26T14:52:28.200Z,16.33
2023-01-26T14:55:00.102Z,16.03
2023-01-26T14:57:29.784Z,16.83
2023-01-26T15:00:02.257Z,16.23
2023-01-26T15:02:45.318Z,14.63
2023-01-26T15:05:23.947Z,14.87
2023-01-26T15:08:06.752Z,14.63
2023-01-26T15:11:19.973Z,14.70
2023-01-26T15:13:53.629Z,14.60
2023-01-26T15:16:27.448Z,13.93
2023-01-26T15:19:08.069Z,16.00
2023-01-26T15:21:41.022Z,15.23
2023-01-26T15:24:16.319Z,15.33
2023-01-26T15:26:45.571Z,15.17
2023-01-26T15:29:33.917Z,16.40
2023-01-26T15:32:02.918Z,14.10
2023-01-26T15:34:34.942Z,14.97
2023-01-26T15:37:24.252Z,15.50
2023-01-26T15:39:52.884Z,14.03
2023-01-26T15:42:28.947Z,14.83
2023-01-26T15:44:57.631Z,14.00
2023-01-26T15:47:26.267Z,15.90
2023-01-26T15:49:54.978Z,14.63
2023-01-26T15:52:30.250Z,14.47
2023-01-26T15:54:58.857Z,16.57
2023-01-26T15:57:27.488Z,15.60
2023-01-26T15:59:56.233Z,16.20
2023-01-26T16:02:24.943Z,16.33
2023-01-26T16:04:53.528Z,15.17
2023-01-26T16:07:22.250Z,14.80
2023-01-26T16:09:52.286Z,14.57
2023-01-26T16:12:36.232Z,13.83
2023-01-26T16:15:07.324Z,13.90
2023-01-26T16:17:35.985Z,14.70
2023-01-26T16:20:04.747Z,15.17
2023-01-26T16:22:33.459Z,14.33
2023-01-26T16:25:02.157Z,15.53
2023-01-26T16:27:30.752Z,13.70
2023-01-26T16:30:00.661Z,13.10
2023-01-26T16:32:30.737Z,13.27
2023-01-26T16:34:59.439Z,14.10
2023-01-26T16:37:28.017Z,12.93
2023-01-26T16:39:56.702Z,13.60
2023-01-26T16:42:25.517Z,12.60
2023-01-26T16:44:54.186Z,13.40
2023-01-26T16:47:22.912Z,13.53
2023-01-26T16:49:51.561Z,13.73
2023-01-26T16:52:20.133Z,13.33
2023-01-26T16:54:50.130Z,12.37
2023-01-26T16:57:18.951Z,12.73
2023-01-26T16:59:47.569Z,12.73
2023-01-26T17:02:28.940Z,13.17
2023-01-26T17:04:57.561Z,12.63
2023-01-26T17:07:26.225Z,13.33
2023-01-26T17:09:54.987Z,16.40
2023-01-26T17:12:23.655Z,13.40
2023-01-26T17:14:52.509Z,12.23
2023-01-26T17:17:21.173Z,9.90
2023-01-26T17:19:49.741Z,11.13
2023-01-26T17:22:18.753Z,11.50
2023-01-26T17:24:47.378Z,11.47
2023-01-26T17:27:16.073Z,10.33
2023-01-26T17:29:45.130Z,10.40
2023-01-26T17:32:13.833Z,11.27
2023-01-26T17:34:42.466Z,12.53
2023-01-26T17:37:11.222Z,12.67
2023-01-26T17:39:39.914Z,11.57
2023-01-26T17:42:08.496Z,11.43
2023-01-26T17:44:37.139Z,10.70
2023-01-26T17:47:05.814Z,12.03
2023-01-26T17:49:34.750Z,12.10
2023-01-26T17:52:03.316Z,11.90
2023-01-26T17:54:32.152Z,13.93
2023-01-26T17:57:00.750Z,13.23
2023-01-26T17:59:29.307Z,12.67
2023-01-26T18:01:58.012Z,12.70
2023-01-26T18:04:26.692Z,12.80
2023-01-26T18:06:55.758Z,11.20
2023-01-26T18:09:24.601Z,12.57
2023-01-26T18:11:53.263Z,13.73
2023-01-26T18:14:21.879Z,14.50
2023-01-26T18:16:50.907Z,15.77
2023-01-26T18:19:19.566Z,14.33
2023-01-26T18:21:51.043Z,13.83
2023-01-26T18:24:19.925Z,15.00
2023-01-26T18:26:48.615Z,14.50
2023-01-26T18:29:17.230Z,14.77
2023-01-26T18:31:46.016Z,14.00
2023-01-26T18:34:14.890Z,12.17
2023-01-26T18:36:43.585Z,13.03
2023-01-26T18:39:16.932Z,12.50
2023-01-26T18:41:45.613Z,12.87
2023-01-26T18:44:14.189Z,12.67
2023-01-26T18:46:42.866Z,12.33
2023-01-26T18:49:12.012Z,12.67
2023-01-26T18:51:46.271Z,12.40
2023-01-26T18:54:15.453Z,10.40
2023-01-26T18:56:44.120Z,12.07
2023-01-26T18:59:12.881Z,10.83
2023-01-26T19:01:43.759Z,10.93
2023-01-26T19:04:12.591Z,10.77
2023-01-26T19:06:41.219Z,10.90
2023-01-26T19:09:11.597Z,11.27
2023-01-26T19:11:40.717Z,12.80
2023-01-26T19:14:09.822Z,14.47
2023-01-26T19:16:38.622Z,12.87
2023-01-26T19:19:07.328Z,14.60
2023-01-26T19:21:35.980Z,12.37
2023-01-26T19:24:06.213Z,13.50
2023-01-26T19:26:35.285Z,12.63
2023-01-26T19:29:04.148Z,13.13
2023-01-26T19:31:32.965Z,13.63
2023-01-26T19:34:05.347Z,13.47
2023-01-26T19:36:37.039Z,13.77
2023-01-26T19:39:06.987Z,13.17
2023-01-26T19:41:36.221Z,12.30
2023-01-26T19:44:04.987Z,11.20
2023-01-26T19:46:34.031Z,10.20
2023-01-26T19:49:02.665Z,10.83
2023-01-26T19:51:31.346Z,10.23
2023-01-26T19:54:00.835Z,11.23
2023-01-26T19:56:36.264Z,11.50
2023-01-26T19:59:10.276Z,10.50
2023-01-26T20:01:39.384Z,10.37
2023-01-26T20:04:13.423Z,11.60
2023-01-26T20:06:42.095Z,11.17
2023-01-26T20:09:10.860Z,10.63
2023-01-26T20:11:39.557Z,11.50
2023-01-26T20:14:11.102Z,11.90
2023-01-26T20:16:39.956Z,12.87
2023-01-26T20:19:08.696Z,11.30
2023-01-26T20:21:38.864Z,12.60
2023-01-26T20:24:08.107Z,11.20
2023-01-26T20:26:37.237Z,11.60
2023-01-26T20:29:07.134Z,11.80
2023-01-26T20:31:36.049Z,11.40
2023-01-26T20:34:04.739Z,11.70
2023-01-26T20:36:35.011Z,13.47
2023-01-26T20:39:03.758Z,13.23
2023-01-26T20:41:33.759Z,11.30
2023-01-26T20:44:05.233Z,11.90
2023-01-26T20:46:40.799Z,12.53
2023-01-26T20:49:13.493Z,12.33
2023-01-26T20:51:45.286Z,12.93
2023-01-26T20:54:16.677Z,12.17
2023-01-26T20:56:46.837Z,11.63
2023-01-26T20:59:15.449Z,11.73
2023-01-26T21:01:44.154Z,13.07
2023-01-26T21:04:13.185Z,12.90
2023-01-26T21:06:41.847Z,11.80
2023-01-26T21:09:12.746Z,11.40
2023-01-26T21:11:41.725Z,12.57
2023-01-26T21:14:14.103Z,11.37
2023-01-26T21:16:42.884Z,10.90
2023-01-26T21:19:11.632Z,11.30
2023-01-26T21:21:40.344Z,10.30
2023-01-26T21:24:08.920Z,10.90
2023-01-26T21:26:37.797Z,12.50
2023-01-26T21:29:07.680Z,11.47
2023-01-26T21:31:36.772Z,11.67
2023-01-26T21:34:05.405Z,12.43
2023-01-26T21:36:35.218Z,12.33
2023-01-26T21:39:04.098Z,13.87
2023-01-26T21:41:51.435Z,13.57
2023-01-26T21:44:53.541Z,12.43
2023-01-26T21:47:22.155Z,13.30
2023-01-26T21:49:52.058Z,12.17
2023-01-26T21:52:37.991Z,12.80
2023-01-26T21:55:06.849Z,13.17
2023-01-26T21:57:52.718Z,12.30
2023-01-26T22:00:21.725Z,14.10
2023-01-26T22:02:50.658Z,13.70
2023-01-26T22:05:19.353Z,12.90
2023-01-26T22:07:47.980Z,12.90
2023-01-26T22:10:17.231Z,13.03
2023-01-26T22:12:45.987Z,12.50
2023-01-26T22:15:14.623Z,12.20
2023-01-26T22:17:43.333Z,13.33
2023-01-26T22:20:13.237Z,12.17
2023-01-26T22:22:42.011Z,10.73
2023-01-26T22:25:11.004Z,12.43
2023-01-26T22:27:41.852Z,13.47
2023-01-26T22:30:11.453Z,11.80
2023-01-26T22:32:40.138Z,11.83
2023-01-26T22:35:08.714Z,11.53
2023-01-26T22:37:37.316Z,12.50
2023-01-26T22:40:06.315Z,12.50
2023-01-26T22:42:36.251Z,12.00
2023-01-26T22:45:04.957Z,11.47
2023-01-26T22:47:33.717Z,13.90
2023-01-26T22:50:02.517Z,13.60
2023-01-26T22:52:31.114Z,12.93
2023-01-26T22:54:59.727Z,12.93
2023-01-26T22:57:28.420Z,13.50
2023-01-26T22:59:57.222Z,10.97
2023-01-26T23:02:25.844Z,11.80
2023-01-26T23:04:54.521Z,12.50
2023-01-26T23:07:24.464Z,13.10
2023-01-26T23:09:53.110Z,12.57
2023-01-26T23:12:21.707Z,13.33
2023-01-26T23:14:50.376Z,12.47
2023-01-26T23:17:18.974Z,13.33
2023-01-26T23:19:47.634Z,12.37
2023-01-26T23:22:16.220Z,13.23
2023-01-26T23:25:05.115Z,11.73
2023-01-26T23:27:33.723Z,12.77
2023-01-26T23:30:03.510Z,13.77
2023-01-26T23:32:32.221Z,12.10
2023-01-26T23:35:00.877Z,13.00
2023-01-26T23:37:29.486Z,13.37
2023-01-26T23:39:58.132Z,13.27
2023-01-26T23:42:26.782Z,12.47
2023-01-26T23:44:55.392Z,13.03
2023-01-26T23:47:24.117Z,12.80
2023-01-26T23:49:52.818Z,12.37
2023-01-26T23:52:21.468Z,12.83
2023-01-26T23:54:50.043Z,13.07
2023-01-26T23:57:18.703Z,11.80
2023-01-26T23:59:47.335Z,12.53
